Pagina principale
METAR-TAF:

METAR-TAF

Aeroporti :

Aeroporto di Pantelleria

Pantelleria, Italia

latitudine: 36-49N, longitudine: 011-58E, altezza: 191 m

Osservazione

Il bollettino è stato emesso 22 minuti fa, alle 16:50 UTC
Vento 9 kt da nord
Temperature 19°C
Umidità 73%
Pressione 1015 hPa
Visibilità 10 km o più
nessuna nube inferiore a 1500 m e nessun cumulonembo

METAR: LICG 311650Z 35009KT CAVOK 19/14 Q1015

Ora: 19:12 (17:12 UTC)

Previsione

Il bollettino è stato emesso 3 ore e 12 minuti fa, alle 14:00 UTC
Previsione valida dal 31 alle 15 UTC al 31 alle 24 UTC
Vento 12 kt da nord
Visibilità 10 km o più
Nubi sparse ad un'altezza di 2000 ft

TAF: LICG 311400Z 3115/3124 36012KT 9999 SCT020

Osservazioni e previsioni meteorologiche di più di 4000 aeroporti (messaggi METAR e TAF).

Le stazioni disponibili sono rappresentate dai dischi gialli e rossi sulla carta.

Puntare il mouse per vedere il nome della stazione.

Clicca sopra per visualizzare le osservazioni e previsioni meteorologiche.

Per cambiare la mappa : fare clic sui pulsanti verdi con una croce nera per ingrandire, il pulsante verde con un trattino per diminuire, o sulla freccia verde per le mappe adiacenti.


METAR-TAF: